createdAt,value
2018-09-08T00:00:29.524Z,56.70
2018-09-08T00:03:31.911Z,56.30
2018-09-08T00:06:35.412Z,57.20
2018-09-08T00:09:37.745Z,57.00
2018-09-08T00:12:40.114Z,56.90
2018-09-08T00:15:48.135Z,57.40
2018-09-08T00:18:56.214Z,57.00
2018-09-08T00:22:04.195Z,56.60
2018-09-08T00:25:12.213Z,56.70
2018-09-08T00:28:19.252Z,57.20
2018-09-08T00:31:21.671Z,56.90
2018-09-08T00:34:24.030Z,57.40
2018-09-08T00:37:26.375Z,57.60
2018-09-08T00:40:28.740Z,57.00
2018-09-08T00:43:31.105Z,56.50
2018-09-08T00:46:33.455Z,57.40
2018-09-08T00:49:35.828Z,57.10
2018-09-08T00:52:38.226Z,57.10
2018-09-08T00:55:40.592Z,56.70
2018-09-08T00:58:48.555Z,57.00
2018-09-08T01:01:57.648Z,56.70
2018-09-08T01:05:00.016Z,57.10
2018-09-08T01:08:02.337Z,57.20
2018-09-08T01:11:04.699Z,57.60
2018-09-08T01:14:07.088Z,57.40
2018-09-08T01:17:09.429Z,57.40
2018-09-08T01:20:11.855Z,57.50
2018-09-08T01:23:14.228Z,57.00
2018-09-08T01:26:16.773Z,57.10
2018-09-08T01:29:19.112Z,56.70
2018-09-08T01:32:21.496Z,56.80
2018-09-08T01:35:23.840Z,56.80
2018-09-08T01:38:26.276Z,57.10
2018-09-08T01:41:28.660Z,57.10
2018-09-08T01:44:30.980Z,57.00
2018-09-08T01:47:33.390Z,56.90
2018-09-08T01:50:35.802Z,56.00
2018-09-08T01:53:38.151Z,56.40
2018-09-08T01:56:40.469Z,56.60
2018-09-08T01:59:42.859Z,56.70
2018-09-08T02:02:45.232Z,56.50
2018-09-08T02:05:47.583Z,56.10
2018-09-08T02:08:49.935Z,56.50
2018-09-08T02:11:52.279Z,56.90
2018-09-08T02:14:54.610Z,56.40
2018-09-08T02:17:57.002Z,56.50
2018-09-08T02:20:59.322Z,56.70
2018-09-08T02:24:06.864Z,56.80
2018-09-08T02:27:09.279Z,56.60
2018-09-08T02:30:13.788Z,57.00
2018-09-08T02:33:16.169Z,57.30
2018-09-08T02:36:18.546Z,57.30
2018-09-08T02:39:20.924Z,56.80
2018-09-08T02:42:23.326Z,57.70
2018-09-08T02:45:25.702Z,58.00
2018-09-08T02:48:28.031Z,57.70
2018-09-08T02:51:29.375Z,58.10
2018-09-08T02:54:30.750Z,58.10
2018-09-08T02:57:32.119Z,58.00
2018-09-08T03:00:33.838Z,57.90
2018-09-08T03:03:35.251Z,58.40
2018-09-08T03:06:36.584Z,58.70
2018-09-08T03:09:37.976Z,59.40
2018-09-08T03:12:39.399Z,59.10
2018-09-08T03:15:40.767Z,59.20
2018-09-08T03:18:42.155Z,58.80
2018-09-08T03:21:43.516Z,59.20
2018-09-08T03:24:45.798Z,59.40
2018-09-08T03:27:47.179Z,59.30
2018-09-08T03:30:48.516Z,59.10
2018-09-08T03:33:49.901Z,59.20
2018-09-08T03:36:51.308Z,59.50
2018-09-08T03:39:52.721Z,59.20
2018-09-08T03:42:54.078Z,59.70
2018-09-08T03:45:55.464Z,59.80
2018-09-08T03:48:56.846Z,59.60
2018-09-08T03:51:58.216Z,59.50
2018-09-08T03:54:59.597Z,59.60
2018-09-08T03:58:00.988Z,60.10
2018-09-08T04:01:02.372Z,60.00
2018-09-08T04:04:04.695Z,60.40
2018-09-08T04:07:12.416Z,60.10
2018-09-08T04:10:14.773Z,60.50
2018-09-08T04:13:17.136Z,60.10
2018-09-08T04:16:19.616Z,60.20
2018-09-08T04:19:22.032Z,60.20
2018-09-08T04:22:29.653Z,60.60
2018-09-08T04:25:31.984Z,61.10
2018-09-08T04:28:34.358Z,60.90
2018-09-08T04:31:36.719Z,60.80
2018-09-08T04:34:39.028Z,60.40
2018-09-08T04:37:41.395Z,60.70
2018-09-08T04:40:43.741Z,60.50
2018-09-08T04:43:46.087Z,60.40
2018-09-08T04:46:48.420Z,61.40
2018-09-08T04:49:50.781Z,61.30
2018-09-08T04:52:53.144Z,61.20
2018-09-08T04:55:55.539Z,60.80
2018-09-08T04:58:57.871Z,60.80
2018-09-08T05:02:00.256Z,60.80
2018-09-08T05:05:02.686Z,60.50
2018-09-08T05:08:05.072Z,60.50
2018-09-08T05:11:07.434Z,60.40
2018-09-08T05:14:09.795Z,60.40
2018-09-08T05:17:12.163Z,61.40
2018-09-08T05:20:14.495Z,60.60
2018-09-08T05:23:16.907Z,61.60
2018-09-08T05:26:19.231Z,61.60
2018-09-08T05:29:21.647Z,60.80
2018-09-08T05:32:24.012Z,60.40
2018-09-08T05:35:26.363Z,60.70
2018-09-08T05:38:28.732Z,60.70
2018-09-08T05:41:31.090Z,61.10
2018-09-08T05:44:33.484Z,62.00
2018-09-08T05:50:49.456Z,62.20
2018-09-08T05:53:53.276Z,61.70
2018-09-08T05:56:55.711Z,61.70
2018-09-08T06:00:14.809Z,62.10
2018-09-08T06:03:19.926Z,62.70
2018-09-08T06:06:23.482Z,62.80
2018-09-08T06:09:26.996Z,62.40
2018-09-08T06:12:29.309Z,62.70
2018-09-08T06:15:31.679Z,63.00
2018-09-08T06:18:34.050Z,63.30
2018-09-08T06:21:47.488Z,62.80
2018-09-08T06:24:51.916Z,62.20
2018-09-08T06:27:56.376Z,62.20
2018-09-08T06:31:00.186Z,62.90
2018-09-08T06:34:02.655Z,62.90
2018-09-08T06:37:05.108Z,62.80
2018-09-08T06:40:17.859Z,62.80
2018-09-08T06:43:21.426Z,63.20
2018-09-08T06:46:26.445Z,63.00
2018-09-08T06:49:28.825Z,63.70
2018-09-08T06:52:31.197Z,63.60
2018-09-08T06:55:33.961Z,63.70
2018-09-08T06:58:36.323Z,63.60
2018-09-08T07:01:38.673Z,63.60
2018-09-08T07:04:41.020Z,63.40
2018-09-08T07:07:43.764Z,63.60
2018-09-08T07:10:46.439Z,63.70
2018-09-08T07:13:49.335Z,63.60
2018-09-08T07:16:51.683Z,63.50
2018-09-08T07:19:54.308Z,64.10
2018-09-08T07:22:56.637Z,63.60
2018-09-08T07:25:59.016Z,64.00
2018-09-08T07:29:01.393Z,63.30
2018-09-08T07:32:05.925Z,63.00
2018-09-08T07:35:08.515Z,63.10
2018-09-08T07:38:10.867Z,63.50
2018-09-08T07:41:13.375Z,63.50
2018-09-08T07:44:15.826Z,63.10
2018-09-08T07:47:18.224Z,62.60
2018-09-08T07:50:20.576Z,62.80
2018-09-08T07:53:23.666Z,62.50
2018-09-08T07:56:26.015Z,62.40
2018-09-08T07:59:28.481Z,62.20
2018-09-08T08:02:30.776Z,62.50
2018-09-08T08:05:33.262Z,62.30
2018-09-08T08:08:35.650Z,62.20
2018-09-08T08:11:38.023Z,62.30
2018-09-08T08:14:40.459Z,62.40
2018-09-08T08:17:42.843Z,62.30
2018-09-08T08:20:45.218Z,62.70
2018-09-08T08:23:47.860Z,62.80
2018-09-08T08:26:50.381Z,62.90
2018-09-08T08:29:52.922Z,63.90
2018-09-08T08:32:55.271Z,61.90
2018-09-08T08:37:01.026Z,63.20
2018-09-08T08:40:03.380Z,62.10
2018-09-08T08:43:05.796Z,62.00
2018-09-08T08:46:08.245Z,62.00
2018-09-08T08:49:10.585Z,61.90
2018-09-08T08:52:24.369Z,62.50
2018-09-08T08:55:26.935Z,61.70
2018-09-08T08:58:29.311Z,62.60
2018-09-08T09:01:31.719Z,63.30
2018-09-08T09:04:34.179Z,62.70
2018-09-08T09:07:36.598Z,62.10
2018-09-08T09:10:39.665Z,63.30
2018-09-08T09:13:42.126Z,61.40
2018-09-08T09:16:45.444Z,62.00
2018-09-08T09:19:59.352Z,62.70
2018-09-08T09:23:13.488Z,62.00
2018-09-08T09:26:16.032Z,61.60
2018-09-08T09:29:18.409Z,61.70
2018-09-08T09:32:21.050Z,62.10
2018-09-08T09:35:23.404Z,61.50
2018-09-08T09:38:25.790Z,61.30
2018-09-08T09:41:28.277Z,63.20
2018-09-08T09:44:30.656Z,60.80
2018-09-08T09:47:33.019Z,61.00
2018-09-08T09:50:35.396Z,59.70
2018-09-08T09:53:37.736Z,59.30
2018-09-08T09:56:40.207Z,59.20
2018-09-08T09:59:42.595Z,59.20
2018-09-08T10:02:48.780Z,58.20
2018-09-08T10:05:51.148Z,57.80
2018-09-08T10:08:53.554Z,56.90
2018-09-08T10:11:55.960Z,57.70
2018-09-08T10:14:58.348Z,55.90
2018-09-08T10:18:00.802Z,55.10
2018-09-08T10:21:03.181Z,54.30
2018-09-08T10:24:05.674Z,53.70
2018-09-08T10:27:07.969Z,54.20
2018-09-08T10:30:10.747Z,53.60
2018-09-08T10:33:13.112Z,53.40
2018-09-08T10:36:15.543Z,54.00
2018-09-08T10:39:17.899Z,55.40
2018-09-08T10:42:20.310Z,55.00
2018-09-08T10:45:22.675Z,55.50
2018-09-08T10:48:25.045Z,53.30
2018-09-08T10:51:38.796Z,53.80
2018-09-08T10:54:41.153Z,52.50
2018-09-08T10:57:43.486Z,52.50
2018-09-08T11:00:45.835Z,54.60
2018-09-08T11:03:48.210Z,52.30
2018-09-08T11:06:50.541Z,51.50
2018-09-08T11:09:52.935Z,52.40
2018-09-08T11:12:55.248Z,52.40
2018-09-08T11:15:57.654Z,51.90
2018-09-08T11:19:00.223Z,50.90
2018-09-08T11:22:02.586Z,50.30
2018-09-08T11:25:05.042Z,50.80
2018-09-08T11:28:07.439Z,49.80
2018-09-08T11:31:09.808Z,53.10
2018-09-08T11:34:12.170Z,48.80
2018-09-08T11:37:14.530Z,50.10
2018-09-08T11:40:16.879Z,48.80
2018-09-08T11:43:19.253Z,48.60
2018-09-08T11:46:21.600Z,49.50
2018-09-08T11:49:24.008Z,47.40
2018-09-08T11:52:26.343Z,47.60
2018-09-08T11:55:28.729Z,49.90
2018-09-08T11:58:31.036Z,48.90
2018-09-08T12:01:33.431Z,46.80
2018-09-08T12:04:35.776Z,48.80
2018-09-08T12:07:38.146Z,48.10
2018-09-08T12:10:40.547Z,49.70
2018-09-08T12:13:42.883Z,49.60
2018-09-08T12:16:45.289Z,48.20
2018-09-08T12:19:47.629Z,47.60
2018-09-08T12:22:49.944Z,47.20
2018-09-08T12:25:52.359Z,46.60
2018-09-08T12:28:54.807Z,48.40
2018-09-08T12:31:57.188Z,45.80
2018-09-08T12:34:59.558Z,45.10
2018-09-08T12:38:02.017Z,46.10
2018-09-08T12:41:04.461Z,48.10
2018-09-08T12:44:06.852Z,46.90
2018-09-08T12:47:09.171Z,45.90
2018-09-08T12:50:11.584Z,47.30
2018-09-08T12:53:14.022Z,46.10
2018-09-08T12:56:16.422Z,44.80
2018-09-08T12:59:18.914Z,43.20
2018-09-08T13:02:21.299Z,45.40
2018-09-08T13:05:23.698Z,44.30
2018-09-08T13:08:26.086Z,45.20
2018-09-08T13:11:28.431Z,42.50
2018-09-08T13:14:30.800Z,44.40
2018-09-08T13:17:33.186Z,45.20
2018-09-08T13:20:35.547Z,44.10
2018-09-08T13:23:37.938Z,46.50
2018-09-08T13:26:40.318Z,48.60
2018-09-08T13:29:42.693Z,46.30
2018-09-08T13:32:45.024Z,46.80
2018-09-08T13:35:47.337Z,47.70
2018-09-08T13:38:49.706Z,48.00
2018-09-08T13:41:52.008Z,47.50
2018-09-08T13:44:54.351Z,48.00
2018-09-08T13:47:56.736Z,49.10
2018-09-08T13:50:59.122Z,47.80
2018-09-08T13:54:01.482Z,48.40
2018-09-08T13:57:03.880Z,46.70
2018-09-08T14:00:06.601Z,48.90
2018-09-08T14:03:08.975Z,47.80
2018-09-08T14:06:11.307Z,48.00
2018-09-08T14:09:13.699Z,48.10
2018-09-08T14:12:16.067Z,48.10
2018-09-08T14:15:18.442Z,47.30
2018-09-08T14:18:20.819Z,46.20
2018-09-08T14:21:23.234Z,48.10
2018-09-08T14:24:25.726Z,45.20
2018-09-08T14:27:28.098Z,45.90
2018-09-08T14:30:30.475Z,45.80
2018-09-08T14:33:32.811Z,46.40
2018-09-08T14:36:35.193Z,46.60
2018-09-08T14:39:37.541Z,47.40
2018-09-08T14:42:39.915Z,48.60
2018-09-08T14:45:42.266Z,48.60
2018-09-08T14:48:44.639Z,46.80
2018-09-08T14:51:47.024Z,48.10
2018-09-08T14:54:49.407Z,47.60
2018-09-08T14:57:51.740Z,46.10
2018-09-08T15:00:54.095Z,46.00
2018-09-08T15:03:56.538Z,46.90
2018-09-08T15:06:58.912Z,49.30
2018-09-08T15:10:01.352Z,46.70
2018-09-08T15:13:03.752Z,46.90
2018-09-08T15:16:06.187Z,48.10
2018-09-08T15:19:08.532Z,47.60
2018-09-08T15:22:10.888Z,47.50
2018-09-08T15:25:13.235Z,49.80
2018-09-08T15:28:15.699Z,48.00
2018-09-08T15:31:18.118Z,48.20
2018-09-08T15:34:20.670Z,49.40
2018-09-08T15:37:23.013Z,50.60
2018-09-08T15:40:25.408Z,53.10
2018-09-08T15:43:27.770Z,49.60
2018-09-08T15:46:30.167Z,50.40
2018-09-08T15:49:32.547Z,50.10
2018-09-08T15:52:34.908Z,50.70
2018-09-08T15:55:37.291Z,49.90
2018-09-08T15:58:39.724Z,51.60
2018-09-08T16:01:41.956Z,53.40
2018-09-08T16:04:44.427Z,51.20
2018-09-08T16:07:46.855Z,49.40
2018-09-08T16:10:49.280Z,49.90
2018-09-08T16:13:51.693Z,51.10
2018-09-08T16:16:54.111Z,50.20
2018-09-08T16:19:56.661Z,50.10
2018-09-08T16:22:59.237Z,49.30
2018-09-08T16:26:01.906Z,49.60
2018-09-08T16:29:04.690Z,53.30
2018-09-08T16:32:07.170Z,51.80
2018-09-08T16:35:09.755Z,49.90
2018-09-08T16:38:13.449Z,50.80
2018-09-08T16:41:17.021Z,50.00
2018-09-08T16:44:19.588Z,53.10
2018-09-08T16:47:22.226Z,52.60
2018-09-08T16:50:25.091Z,53.80
2018-09-08T16:53:28.145Z,51.20
2018-09-08T16:56:31.027Z,50.70
2018-09-08T16:59:33.778Z,54.30
2018-09-08T17:02:36.541Z,53.90
2018-09-08T17:05:39.431Z,53.50
2018-09-08T17:08:42.250Z,52.20
2018-09-08T17:11:44.945Z,54.70
2018-09-08T17:14:47.690Z,55.60
2018-09-08T17:17:50.249Z,56.10
2018-09-08T17:20:52.992Z,57.60
2018-09-08T17:23:55.699Z,57.60
2018-09-08T17:26:58.394Z,57.10
2018-09-08T17:30:01.267Z,58.10
2018-09-08T17:33:04.260Z,58.30
2018-09-08T17:36:06.890Z,58.70
2018-09-08T17:39:11.601Z,58.80
2018-09-08T17:42:14.187Z,59.50
2018-09-08T17:45:16.821Z,59.90
2018-09-08T17:48:20.032Z,60.00
2018-09-08T17:51:22.808Z,59.50
2018-09-08T17:54:25.517Z,59.20
2018-09-08T17:57:28.102Z,60.00
2018-09-08T18:00:31.024Z,60.00
2018-09-08T18:03:33.412Z,60.50
2018-09-08T18:06:35.875Z,60.70
2018-09-08T18:09:38.768Z,60.90
2018-09-08T18:12:41.471Z,60.40
2018-09-08T18:15:44.060Z,60.40
2018-09-08T18:18:46.502Z,60.20
2018-09-08T18:21:49.163Z,60.40
2018-09-08T18:24:52.729Z,60.90
2018-09-08T18:27:55.363Z,59.80
2018-09-08T18:30:57.938Z,59.90
2018-09-08T18:34:00.679Z,59.80
2018-09-08T18:37:03.324Z,59.60
2018-09-08T18:40:06.020Z,59.80
2018-09-08T18:43:09.076Z,59.80
2018-09-08T18:46:12.472Z,59.80
2018-09-08T18:49:14.972Z,59.80
2018-09-08T18:52:18.346Z,59.60
2018-09-08T18:55:20.834Z,59.60
2018-09-08T18:58:23.532Z,59.40
2018-09-08T19:01:26.090Z,59.60
2018-09-08T19:04:29.526Z,59.70
2018-09-08T19:07:32.300Z,59.50
2018-09-08T19:10:35.695Z,59.70
2018-09-08T19:13:38.373Z,59.40
2018-09-08T19:16:41.130Z,59.60
2018-09-08T19:19:43.591Z,59.70
2018-09-08T19:22:46.292Z,59.70
2018-09-08T19:25:49.671Z,59.50
2018-09-08T19:28:59.409Z,59.70
2018-09-08T19:32:02.795Z,59.60
2018-09-08T19:35:11.019Z,59.90
2018-09-08T19:38:13.789Z,59.80
2018-09-08T19:41:16.868Z,59.80
2018-09-08T19:44:20.108Z,59.70
2018-09-08T19:47:28.675Z,59.90
2018-09-08T19:50:31.454Z,60.20
2018-09-08T19:53:39.713Z,60.20
2018-09-08T19:56:47.793Z,60.10
2018-09-08T19:59:50.838Z,60.50
2018-09-08T20:02:53.894Z,60.30
2018-09-08T20:05:56.825Z,60.50
2018-09-08T20:09:00.114Z,60.60
2018-09-08T20:12:02.661Z,60.60
2018-09-08T20:15:05.531Z,60.30
2018-09-08T20:18:07.917Z,60.60
2018-09-08T20:21:10.280Z,60.50
2018-09-08T20:24:12.633Z,60.40
2018-09-08T20:27:15.076Z,60.40
2018-09-08T20:30:17.478Z,60.60
2018-09-08T20:33:19.798Z,60.70
2018-09-08T20:36:22.143Z,59.10
2018-09-08T20:39:24.605Z,59.80
2018-09-08T20:42:26.986Z,59.90
2018-09-08T20:45:29.486Z,60.00
2018-09-08T20:48:32.006Z,60.30
2018-09-08T20:51:34.474Z,59.90
2018-09-08T20:54:36.956Z,60.90
2018-09-08T20:57:40.565Z,60.70
2018-09-08T21:00:42.947Z,59.90
2018-09-08T21:03:45.351Z,60.30
2018-09-08T21:06:47.760Z,60.60
2018-09-08T21:09:50.154Z,60.50
2018-09-08T21:12:52.527Z,60.90
2018-09-08T21:15:55.750Z,60.80
2018-09-08T21:18:58.179Z,61.20
2018-09-08T21:22:01.600Z,61.20
2018-09-08T21:25:05.666Z,61.00
2018-09-08T21:28:08.035Z,60.90
2018-09-08T21:31:10.440Z,61.10
2018-09-08T21:34:12.830Z,61.30
2018-09-08T21:37:15.199Z,61.30
2018-09-08T21:40:17.611Z,60.20
2018-09-08T21:43:20.009Z,60.70
2018-09-08T21:46:22.393Z,60.40
2018-09-08T21:49:24.720Z,61.20
2018-09-08T21:52:27.071Z,61.20
2018-09-08T21:55:29.439Z,61.10
2018-09-08T21:58:31.804Z,61.40
2018-09-08T22:01:34.103Z,61.10
2018-09-08T22:04:36.533Z,61.40
2018-09-08T22:07:38.900Z,61.30
2018-09-08T22:10:41.270Z,61.30
2018-09-08T22:13:43.699Z,61.30
2018-09-08T22:16:46.032Z,61.20
2018-09-08T22:19:48.423Z,61.40
2018-09-08T22:22:50.879Z,61.60
2018-09-08T22:25:53.524Z,61.30
2018-09-08T22:28:55.877Z,61.40
2018-09-08T22:31:58.250Z,61.30
2018-09-08T22:35:00.740Z,61.20
2018-09-08T22:38:03.257Z,61.40
2018-09-08T22:41:05.606Z,61.40
2018-09-08T22:44:07.956Z,61.40
2018-09-08T22:47:10.358Z,61.40
2018-09-08T22:50:12.763Z,61.40
2018-09-08T22:53:15.127Z,61.40
2018-09-08T22:56:17.517Z,61.70
2018-09-08T22:59:19.875Z,62.20
2018-09-08T23:02:22.235Z,62.40
2018-09-08T23:05:24.623Z,62.50
2018-09-08T23:08:27.625Z,62.40
2018-09-08T23:11:30.829Z,62.10
2018-09-08T23:14:33.216Z,62.30
2018-09-08T23:17:35.706Z,62.30
2018-09-08T23:20:38.144Z,62.10
2018-09-08T23:23:40.507Z,62.20
2018-09-08T23:26:42.861Z,61.90
2018-09-08T23:29:45.186Z,61.40
2018-09-08T23:32:47.532Z,61.50
2018-09-08T23:35:50.583Z,61.80
2018-09-08T23:38:53.317Z,62.20
2018-09-08T23:41:55.915Z,62.90
2018-09-08T23:44:58.288Z,62.50
2018-09-08T23:48:00.767Z,62.40
2018-09-08T23:51:03.167Z,62.20
2018-09-08T23:54:05.695Z,62.30
2018-09-08T23:57:08.071Z,62.50
